ウランバートル の空港の天気 - METARとTAF

チンギスハーン国際空港 ( ZMUB / ULN ) - モンゴル ウランバートル
飛行場実況気象(Metar)
観測時間02/18 07:00 ULAT (02/17 23:00 UTC)
風向・風速不定 1m/s
視程6000m
天気現象
なし
気温-29℃
湿度75%
気圧1013hPa
METARZMUB 172300Z VRB01MPS 6000NW NSC M29/M32 Q1013 NOSIG RMK QFE652.7 68 NT
過去の天気等 Google飛行場航空写真 Wunderground天気予報

過去48時間のMETAR

飛行場予報(TAF)
発表時間: 2/18 00:30 ULAT (2/17 16:30 UTC)
予報対象時間: 18日2時 ULAT ~ 19日8時 ULAT
風向・風速不定 2m/s
視程10km以上
なし
18日4時 ULAT ~ 18日6時 ULAT に徐々に
視程6000m
18日8時 ULAT ~ 18日10時 ULAT に徐々に
視程4000m
天気現象
18日12時 ULAT ~ 18日14時 ULAT に徐々に
視程6000m
TAF ZMUB 171630Z 1718/1824 VRB02MPS CAVOK TNM28/1723Z TXM05/1807Z
BECMG 1720/1722 6000
BECMG 1800/1802 4000 FU
BECMG 1804/1806 6000